Time;durP1;ratioP1;P1;durP2;ratioP2;P2;SDS_P1;SDS_P2;PMS_P1;PMS_P2;Temp;Humidity;BMP_temperature;BMP_pressure;BME280_temperature;BME280_humidity;BME280_pressure;Samples;Min_cycle;Max_cycle;Signal;HPM_P1;HPM_P2
2021/04/14 00:00:38;;;;;;;5.90;2.80;;;;;;;1.37;67.09;101828.16;5094148;28;20055;-62
2021/04/14 00:03:09;;;;;;;5.07;3.13;;;;;;;1.36;67.24;101826.47;5094599;28;20052;-62
2021/04/14 00:05:38;;;;;;;4.50;2.95;;;;;;;1.33;67.30;101818.69;5080529;28;20478;-61
2021/04/14 00:08:06;;;;;;;5.72;2.50;;;;;;;1.27;67.44;101819.56;5094334;28;20048;-62
2021/04/14 00:10:36;;;;;;;4.65;3.10;;;;;;;1.21;67.18;101822.09;5094575;28;20052;-61
2021/04/14 00:13:05;;;;;;;4.30;3.00;;;;;;;1.17;67.02;101815.38;5094239;28;20489;-61
2021/04/14 00:15:38;;;;;;;6.33;2.70;;;;;;;1.18;67.32;101830.78;5093605;28;20505;-61
2021/04/14 00:18:06;;;;;;;5.15;2.67;;;;;;;1.18;67.51;101821.72;5094229;28;20051;-61
2021/04/14 00:20:33;;;;;;;5.07;2.60;;;;;;;1.17;67.98;101822.78;5094146;28;20063;-61
2021/04/14 00:23:00;;;;;;;5.72;2.55;;;;;;;1.17;67.83;101826.34;5094306;28;20497;-61
2021/04/14 00:25:29;;;;;;;6.53;3.47;;;;;;;1.17;68.02;101818.13;5093971;28;20354;-61
2021/04/14 00:27:57;;;;;;;6.63;2.70;;;;;;;1.11;67.93;101827.22;5094288;28;20409;-61
2021/04/14 00:30:27;;;;;;;6.50;2.75;;;;;;;1.12;67.98;101828.09;5093660;28;20064;-61
2021/04/14 00:32:55;;;;;;;6.85;2.53;;;;;;;1.12;67.94;101826.19;5093662;28;20052;-61
2021/04/14 00:35:25;;;;;;;4.40;2.85;;;;;;;1.12;68.24;101823.44;5093733;28;20384;-61
2021/04/14 00:37:53;;;;;;;5.43;2.63;;;;;;;1.12;68.31;101823.44;5093957;28;20047;-61
2021/04/14 00:40:25;;;;;;;4.22;2.70;;;;;;;1.07;68.56;101826.00;5093279;28;20056;-61
2021/04/14 00:42:52;;;;;;;6.93;2.83;;;;;;;1.08;68.52;101822.19;5093749;28;20443;-61
2021/04/14 00:45:19;;;;;;;5.72;2.90;;;;;;;1.10;68.27;101821.97;5092771;28;20395;-61
2021/04/14 00:47:46;;;;;;;6.55;2.55;;;;;;;1.09;68.26;101815.66;5093302;28;20056;-61
2021/04/14 00:50:17;;;;;;;5.00;2.60;;;;;;;1.07;68.37;101830.63;5093744;28;20389;-61
2021/04/14 00:52:44;;;;;;;5.55;2.78;;;;;;;1.02;68.41;101823.88;5093214;28;20063;-61
2021/04/14 00:55:14;;;;;;;3.85;2.63;;;;;;;1.00;68.45;101822.41;5092981;28;20056;-61
2021/04/14 00:57:43;;;;;;;5.72;2.80;;;;;;;0.99;68.50;101827.06;5093826;28;20504;-61
2021/04/14 01:00:19;;;;;;;6.63;2.78;;;;;;;0.96;68.90;101823.91;5093118;28;20079;-61
2021/04/14 01:02:46;;;;;;;5.32;3.20;;;;;;;0.90;69.01;101827.53;5092322;28;20385;-61
2021/04/14 01:05:19;;;;;;;6.20;3.22;;;;;;;0.90;68.95;101824.78;5093256;28;20048;-61
2021/04/14 01:07:46;;;;;;;6.95;3.63;;;;;;;0.93;69.01;101822.44;5093524;28;20048;-61
2021/04/14 01:10:14;;;;;;;7.25;3.53;;;;;;;0.90;69.13;101822.03;5093307;28;20052;-61
2021/04/14 01:12:42;;;;;;;5.28;3.10;;;;;;;0.94;69.37;101823.28;5072670;28;20063;-61
2021/04/14 01:15:11;;;;;;;7.03;3.70;;;;;;;0.94;69.28;101818.63;5073048;28;20056;-61
2021/04/14 01:17:38;;;;;;;4.55;3.05;;;;;;;0.98;68.74;101816.31;5072822;28;20048;-60
2021/04/14 01:20:07;;;;;;;4.90;2.85;;;;;;;0.97;68.99;101814.63;5072122;28;20063;-61
2021/04/14 01:22:36;;;;;;;7.63;3.10;;;;;;;0.96;69.23;101807.47;5091827;28;20424;-60
2021/04/14 01:25:07;;;;;;;6.32;3.53;;;;;;;0.96;69.00;101807.47;5092820;28;20052;-61
2021/04/14 01:27:34;;;;;;;4.35;3.00;;;;;;;0.88;68.99;101814.00;5092260;28;20060;-59
2021/04/14 01:30:03;;;;;;;5.13;3.00;;;;;;;0.90;69.18;101817.38;5092411;28;20059;-61
2021/04/14 01:32:30;;;;;;;6.43;2.58;;;;;;;0.92;69.00;101811.69;5092418;28;20048;-61
2021/04/14 01:34:57;;;;;;;4.38;2.83;;;;;;;0.91;69.30;101819.09;5092615;28;20052;-61
2021/04/14 01:37:24;;;;;;;7.13;3.10;;;;;;;0.92;68.71;101815.28;5092643;28;20052;-61
2021/04/14 01:39:53;;;;;;;4.78;2.90;;;;;;;0.94;68.82;101815.06;5092684;28;20404;-61
2021/04/14 01:42:22;;;;;;;6.25;3.10;;;;;;;0.94;69.11;101820.53;5092619;28;20055;-61
2021/04/14 01:44:49;;;;;;;4.83;2.67;;;;;;;0.92;68.83;101811.69;5092069;28;20059;-61
2021/04/14 01:47:16;;;;;;;5.57;2.80;;;;;;;0.92;68.95;101806.19;5092701;28;20489;-61
2021/04/14 01:49:43;;;;;;;5.80;3.03;;;;;;;0.85;69.08;101810.88;5093123;28;20404;-61
2021/04/14 01:52:10;;;;;;;6.63;3.08;;;;;;;0.82;69.41;101812.16;5092182;28;20048;-61
2021/04/14 01:54:37;;;;;;;4.40;2.75;;;;;;;0.80;69.49;101811.53;5092069;28;20063;-61
2021/04/14 01:57:07;;;;;;;6.43;3.45;;;;;;;0.84;69.34;101807.31;5092004;28;20052;-61
2021/04/14 01:59:34;;;;;;;9.05;3.88;;;;;;;0.81;69.26;101808.56;5093322;28;20056;-61
2021/04/14 02:02:01;;;;;;;11.30;3.92;;;;;;;0.83;69.32;101816.56;5092859;28;20412;-61
2021/04/14 02:04:28;;;;;;;6.07;3.30;;;;;;;0.85;69.33;101810.88;5091517;28;20052;-59
2021/04/14 02:06:55;;;;;;;9.48;4.22;;;;;;;0.85;69.11;101803.50;5092656;28;20059;-61
2021/04/14 02:09:22;;;;;;;6.85;3.65;;;;;;;0.85;69.07;101808.16;5092511;28;20059;-61
2021/04/14 02:11:49;;;;;;;9.02;4.38;;;;;;;0.83;69.12;101808.34;5092573;28;20056;-61
2021/04/14 02:14:17;;;;;;;7.60;3.90;;;;;;;0.84;69.29;101811.94;5092203;28;20055;-60
2021/04/14 02:16:44;;;;;;;7.60;4.00;;;;;;;0.83;69.45;101816.56;5092148;28;20067;-61
2021/04/14 02:19:12;;;;;;;9.23;4.20;;;;;;;0.80;69.51;101815.13;5092588;28;20051;-62
2021/04/14 02:21:39;;;;;;;6.60;4.15;;;;;;;0.80;69.64;101809.63;5092163;28;20044;-61
2021/04/14 02:24:07;;;;;;;8.25;4.60;;;;;;;0.83;69.41;101808.34;5092219;28;20059;-61
2021/04/14 02:26:34;;;;;;;7.30;4.03;;;;;;;0.81;69.09;101807.72;5092388;28;20052;-61
2021/04/14 02:29:03;;;;;;;5.82;3.78;;;;;;;0.79;68.77;101802.44;5092379;28;20397;-61
2021/04/14 02:31:32;;;;;;;8.63;4.07;;;;;;;0.76;69.06;101804.81;5092720;28;20068;-61
2021/04/14 02:34:00;;;;;;;7.05;3.40;;;;;;;0.75;68.98;101803.94;5095712;28;20052;-62
2021/04/14 02:36:27;;;;;;;7.45;3.95;;;;;;;0.71;68.82;101797.19;5096157;28;20055;-61
2021/04/14 02:38:54;;;;;;;9.00;3.70;;;;;;;0.70;69.03;101798.28;5095869;28;20056;-61
2021/04/14 02:41:21;;;;;;;7.13;3.83;;;;;;;0.70;68.84;101795.53;5095629;28;20063;-61
2021/04/14 02:43:50;;;;;;;6.47;3.75;;;;;;;0.67;68.72;101798.69;5095384;28;20481;-59
2021/04/14 02:46:17;;;;;;;5.50;3.72;;;;;;;0.66;68.84;101802.50;5095837;28;20063;-61
2021/04/14 02:48:45;;;;;;;9.43;4.43;;;;;;;0.64;68.90;101793.66;5095585;28;20059;-61
2021/04/14 02:51:11;;;;;;;5.85;3.95;;;;;;;0.63;68.71;101794.72;5096155;28;20055;-62
2021/04/14 02:53:38;;;;;;;8.73;3.50;;;;;;;0.60;69.04;101793.22;5094153;28;20056;-61
2021/04/14 02:56:06;;;;;;;6.22;3.80;;;;;;;0.57;69.18;101788.19;5096336;28;20174;-61
2021/04/14 02:58:33;;;;;;;5.97;3.85;;;;;;;0.57;69.04;101787.34;5094986;28;20052;-62
2021/04/14 03:01:00;;;;;;;8.65;4.13;;;;;;;0.57;68.88;101790.94;5095545;28;20055;-62
2021/04/14 03:03:49;;;;;;;6.65;4.05;;;;;;;0.56;68.65;101788.41;5095218;28;20048;-62
2021/04/14 03:06:16;;;;;;;6.53;3.83;;;;;;;0.52;69.02;101787.16;5095116;28;20055;-62
2021/04/14 03:08:43;;;;;;;9.13;4.10;;;;;;;0.51;68.88;101788.22;5095772;28;20071;-62
2021/04/14 03:11:10;;;;;;;8.77;4.25;;;;;;;0.50;68.72;101781.88;5095408;28;20071;-62
2021/04/14 03:13:37;;;;;;;10.98;4.93;;;;;;;0.50;69.16;101784.59;5095039;28;20063;-61
2021/04/14 03:16:05;;;;;;;7.25;3.97;;;;;;;0.49;68.96;101779.38;5095082;28;20047;-62
2021/04/14 03:18:32;;;;;;;8.25;4.40;;;;;;;0.43;69.24;101777.47;5094954;28;20052;-64
2021/04/14 03:21:00;;;;;;;6.90;4.60;;;;;;;0.45;69.28;101778.94;5095593;28;20060;-62
2021/04/14 03:23:27;;;;;;;7.13;4.03;;;;;;;0.43;68.99;101778.31;5094786;28;20075;-60
2021/04/14 03:25:54;;;;;;;7.45;3.80;;;;;;;0.43;68.84;101780.22;5075442;28;20064;-61
2021/04/14 03:28:24;;;;;;;8.82;4.22;;;;;;;0.43;69.11;101780.22;5074894;28;20052;-62
2021/04/14 03:30:51;;;;;;;7.65;3.95;;;;;;;0.42;68.99;101773.91;5074607;28;20052;-61
2021/04/14 03:33:21;;;;;;;10.15;4.32;;;;;;;0.39;69.06;101769.66;5074962;28;20508;-62
2021/04/14 03:35:48;;;;;;;8.63;4.97;;;;;;;0.37;69.17;101777.25;5074544;28;20056;-60
2021/04/14 03:38:16;;;;;;;8.48;4.53;;;;;;;0.34;69.03;101769.50;5074610;28;20056;-60
2021/04/14 03:40:43;;;;;;;7.70;4.47;;;;;;;0.31;69.30;101772.63;5074812;28;20071;-60
2021/04/14 03:43:09;;;;;;;11.38;5.07;;;;;;;0.29;69.48;101777.50;5073727;28;20063;-59
2021/04/14 03:45:39;;;;;;;10.20;5.20;;;;;;;0.26;69.49;101772.47;5093153;28;20054;-60
2021/04/14 03:48:07;;;;;;;6.00;4.63;;;;;;;0.30;69.51;101778.34;5094915;28;20048;-59
2021/04/14 03:50:35;;;;;;;7.57;5.43;;;;;;;0.34;69.82;101777.72;5095038;28;20052;-60
2021/04/14 03:53:11;;;;;;;7.75;4.70;;;;;;;0.38;69.98;101776.22;5094630;28;20048;-60
2021/04/14 03:55:41;;;;;;;7.40;4.65;;;;;;;0.42;69.71;101778.53;5094296;28;20063;-59
2021/04/14 03:58:08;;;;;;;8.48;4.85;;;;;;;0.48;69.36;101774.94;5094202;28;20044;-60
2021/04/14 04:00:35;;;;;;;9.38;5.13;;;;;;;0.54;69.36;101779.56;5094143;28;20052;-60
2021/04/14 04:03:03;;;;;;;10.00;4.90;;;;;;;0.52;69.39;101773.44;5094100;28;20056;-61
2021/04/14 04:05:30;;;;;;;7.43;4.63;;;;;;;0.58;69.07;101773.41;5094352;28;20400;-61
2021/04/14 04:07:57;;;;;;;11.93;4.82;;;;;;;0.57;68.84;101779.13;5094574;28;20055;-59
2021/04/14 04:10:24;;;;;;;6.50;4.35;;;;;;;0.60;68.84;101764.97;5094406;28;20052;-58
2021/04/14 04:12:51;;;;;;;7.25;4.55;;;;;;;0.64;69.03;101766.22;5094172;28;20048;-61
2021/04/14 04:15:18;;;;;;;11.00;4.30;;;;;;;0.72;69.15;101767.91;5093663;28;20079;-61
2021/04/14 04:17:45;;;;;;;8.68;4.68;;;;;;;0.72;68.72;101757.78;5094441;28;20397;-61
2021/04/14 04:20:13;;;;;;;7.30;5.30;;;;;;;0.75;69.33;101761.97;5093631;28;20048;-60
2021/04/14 04:22:40;;;;;;;11.85;6.20;;;;;;;0.76;69.66;101770.00;5093446;28;20071;-60
2021/04/14 04:25:11;;;;;;;11.85;8.15;;;;;;;0.81;69.10;101767.41;5094132;28;20055;-60
2021/04/14 04:27:38;;;;;;;8.65;5.32;;;;;;;0.90;69.63;101764.44;5094524;28;20040;-60
2021/04/14 04:30:08;;;;;;;10.10;5.30;;;;;;;0.99;69.21;101761.22;5093631;28;20122;-59
2021/04/14 04:32:36;;;;;;;8.88;5.15;;;;;;;1.09;68.89;101757.16;5093479;28;20056;-59
2021/04/14 04:35:04;;;;;;;8.70;4.47;;;;;;;1.18;68.29;101769.59;5093396;28;20416;-60
2021/04/14 04:37:31;;;;;;;8.82;4.88;;;;;;;1.27;68.09;101761.94;5093404;28;20060;-60
2021/04/14 04:39:58;;;;;;;7.18;4.85;;;;;;;1.35;68.51;101764.41;5093028;28;20052;-60
2021/04/14 04:42:26;;;;;;;9.48;5.30;;;;;;;1.39;68.61;101762.91;5094372;28;20161;-60
2021/04/14 04:44:53;;;;;;;7.03;4.93;;;;;;;1.45;67.69;101758.41;5092933;28;20385;-60
2021/04/14 04:47:21;;;;;;;7.72;4.78;;;;;;;1.48;67.23;101758.81;5093172;28;20412;-60
2021/04/14 04:49:48;;;;;;;10.40;5.55;;;;;;;1.54;66.47;101766.16;5093655;28;20055;-60
2021/04/14 04:52:14;;;;;;;8.40;5.47;;;;;;;1.54;66.23;101757.94;5092732;28;20397;-60
2021/04/14 04:54:41;;;;;;;7.45;5.00;;;;;;;1.54;66.08;101762.59;5092267;28;20059;-60
2021/04/14 04:57:09;;;;;;;8.00;5.43;;;;;;;1.56;66.20;101764.03;5093602;28;20052;-60
2021/04/14 04:59:35;;;;;;;9.60;5.65;;;;;;;1.56;66.01;101763.22;5093227;28;20072;-60
2021/04/14 05:02:02;;;;;;;8.15;4.75;;;;;;;1.56;66.39;101776.94;5093173;28;20075;-60
2021/04/14 05:04:30;;;;;;;7.78;4.95;;;;;;;1.54;66.38;101777.16;5092442;28;20052;-60
2021/04/14 05:06:57;;;;;;;7.38;5.68;;;;;;;1.51;66.30;101772.13;5093119;28;20047;-60
2021/04/14 05:09:25;;;;;;;9.60;6.18;;;;;;;1.48;66.61;101774.47;5093084;28;20115;-60
2021/04/14 05:11:52;;;;;;;11.70;7.20;;;;;;;1.48;66.56;101775.28;5090598;28;20048;-59
2021/04/14 05:14:21;;;;;;;9.70;7.00;;;;;;;1.62;66.77;101781.53;5090068;28;20087;-61
2021/04/14 05:16:49;;;;;;;9.37;6.40;;;;;;;1.71;66.70;101773.88;5090345;28;20435;-60
2021/04/14 05:19:16;;;;;;;9.07;6.25;;;;;;;1.81;66.10;101774.22;5090431;28;20462;-61
2021/04/14 05:21:47;;;;;;;9.60;6.32;;;;;;;1.84;66.20;101779.25;5090970;28;20052;-60
2021/04/14 05:24:14;;;;;;;9.38;6.22;;;;;;;1.89;65.47;101784.94;5090113;28;20052;-61
2021/04/14 05:26:41;;;;;;;11.23;6.13;;;;;;;1.99;65.92;101781.66;5092105;28;20532;-60
2021/04/14 05:29:08;;;;;;;9.82;6.05;;;;;;;2.08;65.59;101788.56;5093039;28;20059;-61
2021/04/14 05:31:38;;;;;;;9.95;6.03;;;;;;;2.15;65.53;101780.25;5092125;28;20063;-61
2021/04/14 05:34:06;;;;;;;10.93;6.05;;;;;;;2.28;64.98;101785.59;5090678;28;20074;-60
2021/04/14 05:36:34;;;;;;;9.32;6.28;;;;;;;2.35;64.74;101786.41;5090592;28;20052;-61
2021/04/14 05:39:03;;;;;;;10.27;5.93;;;;;;;2.45;64.74;101788.59;5091327;28;20055;-61
2021/04/14 05:41:30;;;;;;;7.88;5.95;;;;;;;2.44;65.08;101796.03;5096138;28;20056;-61
2021/04/14 05:43:57;;;;;;;10.65;6.18;;;;;;;2.47;64.53;101791.97;5092476;28;20059;-60
2021/04/14 05:46:24;;;;;;;9.70;6.65;;;;;;;2.49;65.11;101797.25;5091149;28;20056;-61
2021/04/14 05:48:51;;;;;;;10.75;6.55;;;;;;;2.51;65.04;101795.13;5091957;28;20074;-61
2021/04/14 05:51:22;;;;;;;14.65;6.65;;;;;;;2.54;64.73;101794.66;5092138;28;20386;-62
2021/04/14 05:53:50;;;;;;;10.02;6.10;;;;;;;2.70;64.53;101798.72;5091478;28;20044;-61
2021/04/14 05:56:19;;;;;;;10.88;5.90;;;;;;;2.69;65.01;101810.78;5090732;28;20063;-61
2021/04/14 05:58:49;;;;;;;9.23;5.77;;;;;;;2.82;64.85;101807.88;5091964;28;20052;-61
2021/04/14 06:01:19;;;;;;;9.52;5.82;;;;;;;2.94;64.40;101813.44;5092191;28;20493;-61
2021/04/14 06:03:48;;;;;;;9.68;5.60;;;;;;;2.95;64.25;101818.72;5092269;28;20052;-59
2021/04/14 06:06:16;;;;;;;8.80;6.25;;;;;;;2.96;63.94;101817.66;5093168;28;20052;-61
2021/04/14 06:08:45;;;;;;;13.02;6.88;;;;;;;2.98;64.07;101817.41;5095411;28;20047;-61
2021/04/14 06:11:13;;;;;;;11.10;5.97;;;;;;;3.07;63.51;101820.69;5096149;28;20063;-57
2021/04/14 06:13:41;;;;;;;9.85;6.40;;;;;;;3.17;63.31;101816.34;5096149;28;20399;-61
2021/04/14 06:16:10;;;;;;;9.88;6.60;;;;;;;3.23;63.75;101815.41;5096606;28;20044;-61
2021/04/14 06:18:37;;;;;;;8.50;5.85;;;;;;;3.33;63.92;101803.84;5095244;28;20048;-61
2021/04/14 06:21:05;;;;;;;14.15;6.22;;;;;;;3.37;63.13;101805.03;5094686;28;20408;-61
2021/04/14 06:23:32;;;;;;;9.60;6.10;;;;;;;3.51;63.55;101804.84;5095494;28;20055;-61
2021/04/14 06:26:13;;;;;;;10.07;6.93;;;;;;;3.56;62.88;101805.84;5095288;28;20464;-61
2021/04/14 06:28:41;;;;;;;11.25;6.82;;;;;;;3.63;62.66;101809.34;5095218;28;20059;-61
2021/04/14 06:31:10;;;;;;;11.82;6.53;;;;;;;3.71;63.17;101812.81;5092925;28;20055;-61
2021/04/14 06:33:39;;;;;;;10.20;6.25;;;;;;;3.86;62.26;101811.31;5095769;28;20052;-61
2021/04/14 06:36:06;;;;;;;8.90;5.85;;;;;;;3.97;63.04;101808.78;5096363;28;20063;-61
2021/04/14 06:38:36;;;;;;;11.23;6.07;;;;;;;4.04;62.66;101813.13;5096023;28;20500;-61
2021/04/14 06:44:24;;;;;;;10.88;6.47;;;;;;;4.27;61.53;101820.59;5047579;28;20047;-61
2021/04/14 06:46:53;;;;;;;12.80;6.25;;;;;;;4.41;61.34;101815.69;5095999;28;20685;-59
2021/04/14 06:49:25;;;;;;;9.38;6.10;;;;;;;4.54;60.74;101831.16;5093915;28;20397;-59
2021/04/14 06:51:59;;;;;;;10.23;6.20;;;;;;;4.74;60.01;101821.66;5086646;28;20048;-59
2021/04/14 06:54:37;;;;;;;9.95;6.35;;;;;;;5.01;59.85;101819.19;5086279;28;20408;-55
2021/04/14 06:57:07;;;;;;;10.10;5.65;;;;;;;5.43;58.53;101811.47;5092283;28;20070;-59
2021/04/14 06:59:36;;;;;;;11.52;5.80;;;;;;;5.53;57.61;101813.59;5088531;28;20060;-60
2021/04/14 07:02:07;;;;;;;9.70;6.25;;;;;;;5.76;57.08;101817.34;5076756;28;20060;-58
2021/04/14 07:04:44;;;;;;;9.13;5.70;;;;;;;5.93;56.54;101820.97;5080266;28;20551;-59
2021/04/14 07:07:18;;;;;;;8.48;5.97;;;;;;;6.25;55.38;101812.09;5092889;28;20055;-59
2021/04/14 07:09:48;;;;;;;9.05;6.28;;;;;;;6.56;54.72;101812.59;5092094;28;20374;-59
2021/04/14 07:12:19;;;;;;;8.77;5.90;;;;;;;6.90;54.71;101819.69;5092279;28;20063;-60
2021/04/14 07:14:50;;;;;;;12.63;6.65;;;;;;;7.14;53.91;101818.59;5093851;28;20048;-59
2021/04/14 07:17:24;;;;;;;13.45;7.30;;;;;;;7.41;53.59;101813.97;5094102;28;20056;-59
2021/04/14 07:20:24;;;;;;;9.98;6.13;;;;;;;7.70;52.32;101816.47;5092344;28;20054;-59
2021/04/14 07:23:06;;;;;;;8.80;6.00;;;;;;;8.09;51.47;101814.34;5059659;28;20053;-60
2021/04/14 07:25:42;;;;;;;10.38;6.38;;;;;;;8.37;51.08;101806.75;5089615;28;20060;-59
2021/04/14 07:28:32;;;;;;;14.00;7.32;;;;;;;8.58;50.03;101812.50;5092910;28;20056;-60
2021/04/14 07:31:05;;;;;;;14.70;6.68;;;;;;;9.90;46.88;101805.75;5091739;28;20063;-60
2021/04/14 07:33:45;;;;;;;9.10;6.07;;;;;;;11.50;42.66;101798.66;5092133;28;20052;-60
2021/04/14 07:36:18;;;;;;;9.13;5.57;;;;;;;12.82;39.49;101783.88;5090008;28;20492;-60
2021/04/14 07:38:54;;;;;;;9.88;6.13;;;;;;;13.96;37.18;101793.22;5094155;28;20059;-59
2021/04/14 07:41:31;;;;;;;8.73;5.57;;;;;;;14.96;35.23;101790.84;5092667;28;20073;-61
2021/04/14 07:44:05;;;;;;;8.35;5.55;;;;;;;16.03;32.54;101789.59;5092761;28;20063;-60
2021/04/14 07:46:36;;;;;;;7.82;5.70;;;;;;;16.97;31.08;101789.66;5092587;28;20048;-61
2021/04/14 07:49:05;;;;;;;8.20;5.70;;;;;;;17.46;29.34;101784.78;5093530;28;20048;-61
2021/04/14 07:51:33;;;;;;;9.70;5.32;;;;;;;18.18;28.31;101788.94;5091450;28;20059;-60
2021/04/14 07:54:04;;;;;;;6.60;4.88;;;;;;;19.29;26.06;101775.94;5092738;28;20477;-59
2021/04/14 07:56:41;;;;;;;6.90;5.28;;;;;;;20.35;23.94;101774.72;5096860;28;20052;-60
2021/04/14 07:59:11;;;;;;;7.03;4.78;;;;;;;20.75;24.24;101770.47;5092548;28;20070;-60
2021/04/14 08:01:50;;;;;;;9.13;4.68;;;;;;;21.37;23.47;101762.78;5092487;28;20048;-60
2021/04/14 08:04:24;;;;;;;7.22;4.90;;;;;;;21.81;22.36;101766.56;5073233;28;20052;-60
2021/04/14 08:06:52;;;;;;;10.02;4.75;;;;;;;22.62;21.07;101765.59;5089811;28;20055;-60
2021/04/14 08:09:21;;;;;;;8.90;5.15;;;;;;;23.17;20.26;101769.44;5073610;28;20516;-60
2021/04/14 08:11:50;;;;;;;7.75;5.45;;;;;;;23.90;19.31;101762.16;5089481;28;20047;-60
2021/04/14 08:14:33;;;;;;;9.77;5.55;;;;;;;24.45;18.77;101758.34;5090642;28;20048;-60
2021/04/14 08:17:12;;;;;;;8.85;5.53;;;;;;;25.22;17.77;101753.56;5091890;28;20044;-60
2021/04/14 08:19:39;;;;;;;;;;;;;;;25.63;17.36;101759.47;5093310;28;20058;-60
2021/04/14 08:22:07;;;;;;;7.88;5.00;;;;;;;25.99;17.88;101754.25;5091599;28;19920;-61
2021/04/14 08:24:39;;;;;;;9.82;5.07;;;;;;;26.63;17.09;101754.13;5092112;28;20065;-61
2021/04/14 08:27:15;;;;;;;7.95;4.95;;;;;;;27.27;16.65;101750.97;5090960;28;20048;-61
2021/04/14 08:29:42;;;;;;;7.95;5.00;;;;;;;28.13;15.05;101737.06;5090861;28;20048;-61
2021/04/14 08:32:11;;;;;;;7.22;5.25;;;;;;;28.72;14.17;101739.63;5091680;28;20055;-61
2021/04/14 08:34:40;;;;;;;7.30;5.00;;;;;;;29.50;13.51;101738.75;5090732;28;20047;-63
2021/04/14 08:37:19;;;;;;;6.30;4.90;;;;;;;30.75;13.02;101740.09;5087766;28;20104;-61
2021/04/14 08:39:50;;;;;;;4.60;4.18;;;;;;;31.01;12.17;101748.53;5091344;28;20493;-61
2021/04/14 08:42:28;;;;;;;6.03;4.55;;;;;;;31.72;11.20;101744.09;5090311;28;20075;-61
2021/04/14 08:44:57;;;;;;;6.97;4.35;;;;;;;32.36;10.96;101734.56;5091355;28;20044;-62
2021/04/14 08:47:32;;;;;;;6.47;4.10;;;;;;;32.47;10.81;101740.16;5090601;28;20060;-62
2021/04/14 08:50:03;;;;;;;6.75;4.53;;;;;;;32.86;10.59;101732.94;5090151;28;20048;-62
2021/04/14 08:52:32;;;;;;;7.00;4.07;;;;;;;33.29;10.05;101723.53;5091445;28;20044;-62
2021/04/14 08:55:00;;;;;;;;;;;;;;;33.30;10.12;101727.22;5091860;28;20048;-62
2021/04/14 08:57:27;;;;;;;7.78;4.97;;;;;;;34.56;8.77;101719.50;5090530;28;19931;-62
2021/04/14 08:59:56;;;;;;;6.65;4.90;;;;;;;35.33;8.49;101720.81;5088882;28;20070;-62
2021/04/14 09:02:23;;;;;;;;;;;;;;;35.55;8.26;101721.00;5091709;28;20055;-62
2021/04/14 09:04:54;;;;;;;6.18;4.60;;;;;;;36.58;7.71;101718.22;5091949;28;19920;-62
2021/04/14 09:07:29;;;;;;;6.25;3.78;;;;;;;35.86;7.82;101711.81;5091860;28;20056;-62
2021/04/14 09:09:57;;;;;;;5.95;4.10;;;;;;;34.69;8.76;101717.56;5086129;28;20044;-62
2021/04/14 09:12:38;;;;;;;6.10;4.28;;;;;;;35.84;7.47;101723.06;5090715;28;20060;-62
2021/04/14 09:15:08;;;;;;;6.10;4.15;;;;;;;36.32;7.26;101723.25;5091916;28;20052;-62
2021/04/14 09:17:35;;;;;;;5.05;3.40;;;;;;;35.74;8.01;101722.13;5089541;28;20051;-62
2021/04/14 09:20:17;;;;;;;5.95;3.90;;;;;;;33.47;8.63;101714.47;5090038;28;20516;-62
2021/04/14 09:22:45;;;;;;;6.80;4.05;;;;;;;31.13;10.91;101722.91;5091334;28;20503;-62
2021/04/14 09:25:20;;;;;;;6.68;4.20;;;;;;;29.44;11.96;101726.03;5088230;28;20056;-60
2021/04/14 09:27:50;;;;;;;6.18;4.40;;;;;;;29.14;11.54;101726.50;5089134;28;20044;-61
2021/04/14 09:30:35;;;;;;;5.05;4.53;;;;;;;27.12;12.99;101724.28;5091804;28;20047;-61
2021/04/14 09:33:19;;;;;;;7.57;5.50;;;;;;;26.13;14.00;101720.94;5086769;28;20044;-61
2021/04/14 09:36:06;;;;;;;7.63;5.07;;;;;;;27.91;13.35;101714.09;5083401;28;20481;-61
2021/04/14 09:38:44;;;;;;;6.63;5.57;;;;;;;28.19;12.23;101715.41;5092080;28;20052;-61
2021/04/14 09:41:30;;;;;;;9.38;6.38;;;;;;;26.78;13.30;101721.59;5087228;28;20063;-61
2021/04/14 09:44:11;;;;;;;7.78;5.82;;;;;;;25.44;15.57;101723.34;5088293;28;20044;-61
2021/04/14 09:46:40;;;;;;;10.13;6.10;;;;;;;23.71;17.04;101720.28;5088821;28;20062;-62
2021/04/14 09:49:13;;;;;;;10.23;6.57;;;;;;;22.14;18.80;101727.78;5092096;28;20048;-62
2021/04/14 09:51:43;;;;;;;8.20;6.05;;;;;;;21.01;20.38;101722.78;5089253;28;20048;-60
2021/04/14 09:54:13;;;;;;;8.38;6.35;;;;;;;19.98;22.08;101728.53;5090489;28;20048;-62
2021/04/14 09:56:48;;;;;;;8.77;6.05;;;;;;;20.16;21.54;101731.97;5090835;28;20052;-58
2021/04/14 09:59:22;;;;;;;13.00;7.25;;;;;;;22.48;19.24;101723.44;5087549;28;20056;-60
2021/04/14 10:01:51;;;;;;;6.88;5.78;;;;;;;25.88;15.12;101714.13;5081917;28;20493;-61
2021/04/14 10:04:23;;;;;;;5.75;4.80;;;;;;;28.47;12.79;101705.19;5086253;28;20059;-62
2021/04/14 10:06:55;;;;;;;7.72;4.78;;;;;;;30.90;10.56;101708.38;5087974;28;20048;-62
2021/04/14 10:09:25;;;;;;;6.65;5.32;;;;;;;32.62;9.30;101696.69;5090197;28;20063;-62
2021/04/14 10:11:53;;;;;;;5.85;5.15;;;;;;;33.24;8.78;101694.31;5091791;28;20055;-62
2021/04/14 10:14:22;;;;;;;5.05;4.03;;;;;;;30.91;9.66;101695.59;5090680;28;20377;-62
2021/04/14 10:16:51;;;;;;;6.03;3.60;;;;;;;29.51;10.79;101691.56;5091455;28;20052;-62
2021/04/14 10:19:27;;;;;;;5.57;3.67;;;;;;;27.88;11.73;101692.00;5090892;28;20400;-62
2021/04/14 10:21:56;;;;;;;5.22;3.80;;;;;;;26.48;12.90;101701.69;5088745;28;20507;-62
2021/04/14 10:24:24;;;;;;;7.30;4.37;;;;;;;25.43;13.07;101694.00;5078352;28;20040;-61
2021/04/14 10:26:54;;;;;;;8.80;5.20;;;;;;;24.30;14.51;101694.63;5090583;28;20059;-62
2021/04/14 10:29:25;;;;;;;5.93;4.50;;;;;;;23.53;15.28;101689.81;5090859;28;20055;-62
2021/04/14 10:31:52;;;;;;;7.05;4.45;;;;;;;23.58;15.39;101687.50;5091032;28;20056;-62
2021/04/14 10:34:26;;;;;;;5.70;4.43;;;;;;;22.71;16.46;101695.22;5090037;28;20048;-62
2021/04/14 10:36:56;;;;;;;6.07;5.47;;;;;;;23.73;15.54;101685.78;5071451;28;20413;-62
2021/04/14 10:39:36;;;;;;;6.25;3.90;;;;;;;24.72;14.58;101679.50;5088848;28;20052;-62
2021/04/14 10:42:15;;;;;;;5.85;5.28;;;;;;;26.08;13.72;101683.34;5091188;28;20063;-62
2021/04/14 10:44:42;;;;;;;5.85;4.65;;;;;;;29.51;10.93;101670.66;5090235;28;20052;-62
2021/04/14 10:47:14;;;;;;;6.93;4.18;;;;;;;32.05;8.96;101672.47;5091001;28;20079;-62
2021/04/14 10:49:41;;;;;;;4.90;4.35;;;;;;;33.81;7.94;101664.25;5086175;28;20055;-62
2021/04/14 10:52:24;;;;;;;5.45;3.70;;;;;;;34.30;7.21;101661.47;5089699;28;20047;-62
2021/04/14 10:54:54;;;;;;;5.35;3.55;;;;;;;33.78;7.88;101661.44;5091470;28;20048;-62
2021/04/14 10:57:26;;;;;;;4.93;3.28;;;;;;;31.59;8.48;101673.91;5087666;28;20055;-60
2021/04/14 11:00:00;;;;;;;4.78;3.03;;;;;;;29.27;10.49;101658.84;5092841;28;20055;-62
2021/04/14 11:02:29;;;;;;;4.18;3.03;;;;;;;27.39;10.83;101669.72;5094573;28;20052;-62
2021/04/14 11:04:57;;;;;;;4.57;3.20;;;;;;;26.12;11.98;101669.94;5091787;28;20056;-62
2021/04/14 11:07:29;;;;;;;4.35;3.20;;;;;;;28.58;10.44;101657.34;5094212;28;20056;-62
2021/04/14 11:10:01;;;;;;;5.97;3.55;;;;;;;26.51;12.36;101670.28;5091989;28;20051;-62
2021/04/14 11:12:29;;;;;;;5.22;3.47;;;;;;;25.01;12.86;101660.81;5094518;28;20493;-62
2021/04/14 11:15:01;;;;;;;4.15;3.50;;;;;;;24.94;13.97;101663.53;5089062;28;20044;-62
2021/04/14 11:17:30;;;;;;;5.07;4.10;;;;;;;22.68;17.26;101684.63;5087096;28;20055;-62
2021/04/14 11:19:59;;;;;;;4.30;3.53;;;;;;;20.50;21.58;101685.50;5089171;28;20048;-61
2021/04/14 11:22:28;;;;;;;;;;;;;;;18.80;23.64;101704.97;5094542;28;20063;-62
2021/04/14 11:24:56;;;;;;;5.22;3.40;;;;;;;17.56;27.11;101704.78;5091994;28;19924;-61
2021/04/14 11:27:27;;;;;;;4.25;3.00;;;;;;;16.63;28.49;101698.28;5092309;28;20055;-61
2021/04/14 11:30:07;;;;;;;3.40;2.15;;;;;;;15.94;25.14;101685.56;5091018;28;20051;-61
2021/04/14 11:32:34;;;;;;;4.55;2.60;;;;;;;15.51;26.51;101690.84;5093079;28;20061;-61
2021/04/14 11:35:04;;;;;;;2.88;2.25;;;;;;;15.15;25.43;101674.84;5083217;28;20045;-61
2021/04/14 11:37:42;;;;;;;;;;;;;;;14.92;25.68;101673.97;5100595;28;20075;-61
2021/04/14 11:40:35;;;;;;;4.43;2.30;;;;;;;15.02;25.82;101668.13;5092656;28;19924;-61
2021/04/14 11:43:06;;;;;;;3.53;2.50;;;;;;;16.20;24.35;101666.03;5074244;28;20056;-60
2021/04/14 11:45:35;;;;;;;4.95;2.60;;;;;;;18.49;22.47;101652.47;5089749;28;20044;-61
2021/04/14 11:48:10;;;;;;;4.03;3.10;;;;;;;21.67;19.40;101659.22;5092934;28;20052;-61